sensor_id;sensor_type;location;lat;lon;timestamp;P1;durP1;ratioP1;P2;durP2;ratioP2
9522;SDS011;63165;43.016;25.784;2023-09-08T00:01:08;12.63;;;4.72;;
9522;SDS011;63165;43.016;25.784;2023-09-08T00:03:35;15.75;;;4.85;;
9522;SDS011;63165;43.016;25.784;2023-09-08T00:06:02;12.43;;;5.30;;
9522;SDS011;63165;43.016;25.784;2023-09-08T00:08:30;14.32;;;5.50;;
9522;SDS011;63165;43.016;25.784;2023-09-08T00:10:57;12.52;;;5.18;;
9522;SDS011;63165;43.016;25.784;2023-09-08T00:13:26;14.20;;;5.00;;
9522;SDS011;63165;43.016;25.784;2023-09-08T00:15:53;18.63;;;5.40;;
9522;SDS011;63165;43.016;25.784;2023-09-08T00:18:20;12.55;;;4.70;;
9522;SDS011;63165;43.016;25.784;2023-09-08T00:20:47;15.35;;;4.80;;
9522;SDS011;63165;43.016;25.784;2023-09-08T00:23:14;18.42;;;5.25;;
9522;SDS011;63165;43.016;25.784;2023-09-08T00:25:41;17.75;;;5.20;;
9522;SDS011;63165;43.016;25.784;2023-09-08T00:28:08;13.70;;;4.85;;
9522;SDS011;63165;43.016;25.784;2023-09-08T00:30:37;12.30;;;4.75;;
9522;SDS011;63165;43.016;25.784;2023-09-08T00:33:04;13.90;;;4.68;;
9522;SDS011;63165;43.016;25.784;2023-09-08T00:35:34;14.60;;;4.90;;
9522;SDS011;63165;43.016;25.784;2023-09-08T00:38:01;12.20;;;4.85;;
9522;SDS011;63165;43.016;25.784;2023-09-08T00:40:28;17.48;;;5.40;;
9522;SDS011;63165;43.016;25.784;2023-09-08T00:42:56;13.00;;;4.90;;
9522;SDS011;63165;43.016;25.784;2023-09-08T00:45:23;15.32;;;4.90;;
9522;SDS011;63165;43.016;25.784;2023-09-08T00:47:54;17.02;;;5.20;;
9522;SDS011;63165;43.016;25.784;2023-09-08T00:50:21;13.63;;;5.22;;
9522;SDS011;63165;43.016;25.784;2023-09-08T00:52:49;15.57;;;4.80;;
9522;SDS011;63165;43.016;25.784;2023-09-08T00:55:17;13.32;;;4.68;;
9522;SDS011;63165;43.016;25.784;2023-09-08T00:57:44;15.55;;;4.55;;
9522;SDS011;63165;43.016;25.784;2023-09-08T01:00:12;10.73;;;4.75;;
9522;SDS011;63165;43.016;25.784;2023-09-08T01:02:40;17.30;;;5.45;;
9522;SDS011;63165;43.016;25.784;2023-09-08T01:05:11;16.67;;;5.72;;
9522;SDS011;63165;43.016;25.784;2023-09-08T01:07:39;12.43;;;5.47;;
9522;SDS011;63165;43.016;25.784;2023-09-08T01:10:08;15.88;;;5.25;;
9522;SDS011;63165;43.016;25.784;2023-09-08T01:12:37;24.25;;;5.70;;
9522;SDS011;63165;43.016;25.784;2023-09-08T01:15:05;20.40;;;5.55;;
9522;SDS011;63165;43.016;25.784;2023-09-08T01:17:33;14.20;;;5.20;;
9522;SDS011;63165;43.016;25.784;2023-09-08T01:20:02;16.60;;;5.32;;
9522;SDS011;63165;43.016;25.784;2023-09-08T01:22:41;14.83;;;5.43;;
9522;SDS011;63165;43.016;25.784;2023-09-08T01:25:24;17.35;;;5.50;;
9522;SDS011;63165;43.016;25.784;2023-09-08T01:27:54;13.55;;;5.63;;
9522;SDS011;63165;43.016;25.784;2023-09-08T01:30:23;14.38;;;5.20;;
9522;SDS011;63165;43.016;25.784;2023-09-08T01:32:51;18.48;;;5.70;;
9522;SDS011;63165;43.016;25.784;2023-09-08T01:35:20;14.40;;;5.55;;
9522;SDS011;63165;43.016;25.784;2023-09-08T01:37:48;16.38;;;5.60;;
9522;SDS011;63165;43.016;25.784;2023-09-08T01:40:16;14.43;;;6.10;;
9522;SDS011;63165;43.016;25.784;2023-09-08T01:42:45;18.88;;;6.18;;
9522;SDS011;63165;43.016;25.784;2023-09-08T01:45:13;19.85;;;5.90;;
9522;SDS011;63165;43.016;25.784;2023-09-08T01:47:40;22.88;;;6.18;;
9522;SDS011;63165;43.016;25.784;2023-09-08T01:50:08;16.33;;;6.40;;
9522;SDS011;63165;43.016;25.784;2023-09-08T01:52:37;23.38;;;6.40;;
9522;SDS011;63165;43.016;25.784;2023-09-08T01:55:05;15.48;;;5.90;;
9522;SDS011;63165;43.016;25.784;2023-09-08T01:57:33;19.60;;;6.43;;
9522;SDS011;63165;43.016;25.784;2023-09-08T02:00:03;15.35;;;6.13;;
9522;SDS011;63165;43.016;25.784;2023-09-08T02:02:32;19.00;;;6.38;;
9522;SDS011;63165;43.016;25.784;2023-09-08T02:04:59;16.42;;;6.40;;
9522;SDS011;63165;43.016;25.784;2023-09-08T02:07:27;19.45;;;6.10;;
9522;SDS011;63165;43.016;25.784;2023-09-08T02:09:54;24.25;;;6.40;;
9522;SDS011;63165;43.016;25.784;2023-09-08T02:12:21;16.70;;;5.90;;
9522;SDS011;63165;43.016;25.784;2023-09-08T02:14:49;16.25;;;6.28;;
9522;SDS011;63165;43.016;25.784;2023-09-08T02:17:18;16.60;;;5.65;;
9522;SDS011;63165;43.016;25.784;2023-09-08T02:19:46;18.63;;;6.05;;
9522;SDS011;63165;43.016;25.784;2023-09-08T02:22:13;17.20;;;6.22;;
9522;SDS011;63165;43.016;25.784;2023-09-08T02:24:40;19.77;;;6.15;;
9522;SDS011;63165;43.016;25.784;2023-09-08T02:27:08;16.42;;;5.80;;
9522;SDS011;63165;43.016;25.784;2023-09-08T02:29:36;17.98;;;6.28;;
9522;SDS011;63165;43.016;25.784;2023-09-08T02:32:04;16.55;;;6.40;;
9522;SDS011;63165;43.016;25.784;2023-09-08T02:34:35;17.63;;;6.20;;
9522;SDS011;63165;43.016;25.784;2023-09-08T02:37:03;16.33;;;6.22;;
9522;SDS011;63165;43.016;25.784;2023-09-08T02:39:31;18.23;;;6.07;;
9522;SDS011;63165;43.016;25.784;2023-09-08T02:41:59;21.00;;;6.35;;
9522;SDS011;63165;43.016;25.784;2023-09-08T02:44:27;23.60;;;6.78;;
9522;SDS011;63165;43.016;25.784;2023-09-08T02:46:55;15.98;;;6.47;;
9522;SDS011;63165;43.016;25.784;2023-09-08T02:49:30;17.20;;;6.57;;
9522;SDS011;63165;43.016;25.784;2023-09-08T02:52:06;24.88;;;6.80;;
9522;SDS011;63165;43.016;25.784;2023-09-08T02:54:34;19.30;;;6.93;;
9522;SDS011;63165;43.016;25.784;2023-09-08T02:57:01;23.83;;;6.60;;
9522;SDS011;63165;43.016;25.784;2023-09-08T02:59:28;18.20;;;6.30;;
9522;SDS011;63165;43.016;25.784;2023-09-08T03:01:56;19.98;;;6.63;;
9522;SDS011;63165;43.016;25.784;2023-09-08T03:04:24;16.55;;;6.35;;
9522;SDS011;63165;43.016;25.784;2023-09-08T03:06:51;22.55;;;7.15;;
9522;SDS011;63165;43.016;25.784;2023-09-08T03:09:22;21.80;;;6.65;;
9522;SDS011;63165;43.016;25.784;2023-09-08T03:11:55;18.10;;;6.53;;
9522;SDS011;63165;43.016;25.784;2023-09-08T03:14:24;19.60;;;5.95;;
9522;SDS011;63165;43.016;25.784;2023-09-08T03:16:51;18.48;;;6.65;;
9522;SDS011;63165;43.016;25.784;2023-09-08T03:19:18;16.75;;;5.95;;
9522;SDS011;63165;43.016;25.784;2023-09-08T03:21:46;18.02;;;6.05;;
9522;SDS011;63165;43.016;25.784;2023-09-08T03:24:13;17.13;;;6.07;;
9522;SDS011;63165;43.016;25.784;2023-09-08T03:26:42;17.45;;;6.10;;
9522;SDS011;63165;43.016;25.784;2023-09-08T03:29:09;16.17;;;6.03;;
9522;SDS011;63165;43.016;25.784;2023-09-08T03:31:37;17.42;;;6.57;;
9522;SDS011;63165;43.016;25.784;2023-09-08T03:34:05;18.10;;;6.15;;
9522;SDS011;63165;43.016;25.784;2023-09-08T03:36:33;20.73;;;5.90;;
9522;SDS011;63165;43.016;25.784;2023-09-08T03:39:02;18.05;;;5.90;;
9522;SDS011;63165;43.016;25.784;2023-09-08T03:41:29;20.80;;;6.57;;
9522;SDS011;63165;43.016;25.784;2023-09-08T03:43:58;16.77;;;6.00;;
9522;SDS011;63165;43.016;25.784;2023-09-08T03:46:26;17.92;;;6.05;;
9522;SDS011;63165;43.016;25.784;2023-09-08T03:48:56;16.25;;;5.63;;
9522;SDS011;63165;43.016;25.784;2023-09-08T03:51:29;19.65;;;5.75;;
9522;SDS011;63165;43.016;25.784;2023-09-08T03:54:01;18.92;;;5.97;;
9522;SDS011;63165;43.016;25.784;2023-09-08T03:56:29;19.02;;;5.72;;
9522;SDS011;63165;43.016;25.784;2023-09-08T03:58:58;21.45;;;5.95;;
9522;SDS011;63165;43.016;25.784;2023-09-08T04:01:25;18.30;;;5.75;;
9522;SDS011;63165;43.016;25.784;2023-09-08T04:03:52;18.45;;;5.90;;
9522;SDS011;63165;43.016;25.784;2023-09-08T04:06:19;20.88;;;6.57;;
9522;SDS011;63165;43.016;25.784;2023-09-08T04:08:47;22.88;;;6.40;;
9522;SDS011;63165;43.016;25.784;2023-09-08T04:11:14;18.55;;;5.65;;
9522;SDS011;63165;43.016;25.784;2023-09-08T04:13:44;22.30;;;5.40;;
9522;SDS011;63165;43.016;25.784;2023-09-08T04:16:13;18.35;;;7.13;;
9522;SDS011;63165;43.016;25.784;2023-09-08T04:18:40;25.92;;;9.10;;
9522;SDS011;63165;43.016;25.784;2023-09-08T04:21:11;30.58;;;8.80;;
9522;SDS011;63165;43.016;25.784;2023-09-08T04:23:41;35.45;;;11.50;;
9522;SDS011;63165;43.016;25.784;2023-09-08T04:26:08;30.92;;;11.48;;
9522;SDS011;63165;43.016;25.784;2023-09-08T04:28:36;32.88;;;9.85;;
9522;SDS011;63165;43.016;25.784;2023-09-08T04:31:03;22.27;;;7.63;;
9522;SDS011;63165;43.016;25.784;2023-09-08T04:33:32;18.77;;;6.97;;
9522;SDS011;63165;43.016;25.784;2023-09-08T04:36:00;16.90;;;6.68;;
9522;SDS011;63165;43.016;25.784;2023-09-08T04:38:27;17.38;;;6.38;;
9522;SDS011;63165;43.016;25.784;2023-09-08T04:40:54;21.00;;;5.80;;
9522;SDS011;63165;43.016;25.784;2023-09-08T04:43:22;17.10;;;5.93;;
9522;SDS011;63165;43.016;25.784;2023-09-08T04:45:49;16.70;;;5.80;;
9522;SDS011;63165;43.016;25.784;2023-09-08T04:48:16;16.90;;;5.93;;
9522;SDS011;63165;43.016;25.784;2023-09-08T04:50:45;16.88;;;6.35;;
9522;SDS011;63165;43.016;25.784;2023-09-08T04:53:12;18.73;;;6.22;;
9522;SDS011;63165;43.016;25.784;2023-09-08T04:55:39;17.80;;;5.53;;
9522;SDS011;63165;43.016;25.784;2023-09-08T04:58:07;18.17;;;5.85;;
9522;SDS011;63165;43.016;25.784;2023-09-08T05:00:34;16.08;;;5.95;;
9522;SDS011;63165;43.016;25.784;2023-09-08T05:03:01;17.60;;;6.07;;
9522;SDS011;63165;43.016;25.784;2023-09-08T05:05:28;21.90;;;6.13;;
9522;SDS011;63165;43.016;25.784;2023-09-08T05:07:57;25.63;;;7.20;;
9522;SDS011;63165;43.016;25.784;2023-09-08T05:10:24;41.85;;;13.10;;
9522;SDS011;63165;43.016;25.784;2023-09-08T05:12:51;25.02;;;8.95;;
9522;SDS011;63165;43.016;25.784;2023-09-08T05:15:19;19.58;;;6.55;;
9522;SDS011;63165;43.016;25.784;2023-09-08T05:17:46;13.45;;;5.80;;
9522;SDS011;63165;43.016;25.784;2023-09-08T05:20:14;14.98;;;6.57;;
9522;SDS011;63165;43.016;25.784;2023-09-08T05:22:41;19.10;;;5.18;;
9522;SDS011;63165;43.016;25.784;2023-09-08T05:25:10;14.75;;;5.90;;
9522;SDS011;63165;43.016;25.784;2023-09-08T05:27:37;23.50;;;5.45;;
9522;SDS011;63165;43.016;25.784;2023-09-08T05:30:04;17.38;;;6.10;;
9522;SDS011;63165;43.016;25.784;2023-09-08T05:32:32;16.50;;;5.65;;
9522;SDS011;63165;43.016;25.784;2023-09-08T05:35:00;24.23;;;5.63;;
9522;SDS011;63165;43.016;25.784;2023-09-08T05:37:28;14.23;;;5.32;;
9522;SDS011;63165;43.016;25.784;2023-09-08T05:39:55;15.30;;;5.70;;
9522;SDS011;63165;43.016;25.784;2023-09-08T05:42:23;13.05;;;5.72;;
9522;SDS011;63165;43.016;25.784;2023-09-08T05:44:50;12.05;;;5.22;;
9522;SDS011;63165;43.016;25.784;2023-09-08T05:47:19;17.95;;;5.40;;
9522;SDS011;63165;43.016;25.784;2023-09-08T05:49:47;18.48;;;5.10;;
9522;SDS011;63165;43.016;25.784;2023-09-08T05:52:14;12.23;;;5.50;;
9522;SDS011;63165;43.016;25.784;2023-09-08T05:54:41;15.30;;;5.50;;
9522;SDS011;63165;43.016;25.784;2023-09-08T05:57:09;24.67;;;5.85;;
9522;SDS011;63165;43.016;25.784;2023-09-08T05:59:37;15.82;;;5.85;;
9522;SDS011;63165;43.016;25.784;2023-09-08T06:02:04;16.00;;;5.43;;
9522;SDS011;63165;43.016;25.784;2023-09-08T06:04:32;12.90;;;5.22;;
9522;SDS011;63165;43.016;25.784;2023-09-08T06:06:59;14.40;;;5.28;;
9522;SDS011;63165;43.016;25.784;2023-09-08T06:09:26;15.60;;;5.28;;
9522;SDS011;63165;43.016;25.784;2023-09-08T06:11:54;10.30;;;4.50;;
9522;SDS011;63165;43.016;25.784;2023-09-08T06:14:21;18.33;;;4.75;;
9522;SDS011;63165;43.016;25.784;2023-09-08T06:16:49;15.68;;;5.10;;
9522;SDS011;63165;43.016;25.784;2023-09-08T06:19:16;16.40;;;5.30;;
9522;SDS011;63165;43.016;25.784;2023-09-08T06:21:43;14.10;;;4.85;;
9522;SDS011;63165;43.016;25.784;2023-09-08T06:24:11;10.10;;;4.70;;
9522;SDS011;63165;43.016;25.784;2023-09-08T06:26:38;14.70;;;5.07;;
9522;SDS011;63165;43.016;25.784;2023-09-08T06:29:05;10.98;;;4.35;;
9522;SDS011;63165;43.016;25.784;2023-09-08T06:31:32;10.13;;;4.82;;
9522;SDS011;63165;43.016;25.784;2023-09-08T06:34:01;15.85;;;4.60;;
9522;SDS011;63165;43.016;25.784;2023-09-08T06:36:28;12.60;;;4.63;;
9522;SDS011;63165;43.016;25.784;2023-09-08T06:38:55;18.65;;;4.97;;
9522;SDS011;63165;43.016;25.784;2023-09-08T06:41:23;15.25;;;4.53;;
9522;SDS011;63165;43.016;25.784;2023-09-08T06:43:52;16.40;;;4.53;;
9522;SDS011;63165;43.016;25.784;2023-09-08T06:46:19;14.68;;;4.40;;
9522;SDS011;63165;43.016;25.784;2023-09-08T06:48:46;10.00;;;4.20;;
9522;SDS011;63165;43.016;25.784;2023-09-08T06:51:15;12.25;;;4.47;;
9522;SDS011;63165;43.016;25.784;2023-09-08T06:53:42;16.05;;;4.43;;
9522;SDS011;63165;43.016;25.784;2023-09-08T06:56:10;9.70;;;4.30;;
9522;SDS011;63165;43.016;25.784;2023-09-08T06:58:37;13.45;;;4.93;;
9522;SDS011;63165;43.016;25.784;2023-09-08T07:01:04;17.00;;;4.40;;
9522;SDS011;63165;43.016;25.784;2023-09-08T07:03:31;12.52;;;4.38;;
9522;SDS011;63165;43.016;25.784;2023-09-08T07:06:02;12.23;;;4.40;;
9522;SDS011;63165;43.016;25.784;2023-09-08T07:08:30;15.20;;;4.50;;
9522;SDS011;63165;43.016;25.784;2023-09-08T07:10:57;14.35;;;4.25;;
9522;SDS011;63165;43.016;25.784;2023-09-08T07:13:25;13.63;;;4.25;;
9522;SDS011;63165;43.016;25.784;2023-09-08T07:15:52;9.30;;;3.97;;
9522;SDS011;63165;43.016;25.784;2023-09-08T07:18:19;16.13;;;4.30;;
9522;SDS011;63165;43.016;25.784;2023-09-08T07:20:46;18.42;;;4.68;;
9522;SDS011;63165;43.016;25.784;2023-09-08T07:23:15;16.00;;;4.70;;
9522;SDS011;63165;43.016;25.784;2023-09-08T07:25:46;17.73;;;5.15;;
9522;SDS011;63165;43.016;25.784;2023-09-08T07:28:13;14.48;;;4.90;;
9522;SDS011;63165;43.016;25.784;2023-09-08T07:30:41;13.95;;;4.85;;
9522;SDS011;63165;43.016;25.784;2023-09-08T07:33:08;11.43;;;3.80;;
9522;SDS011;63165;43.016;25.784;2023-09-08T07:35:36;12.82;;;4.22;;
9522;SDS011;63165;43.016;25.784;2023-09-08T07:38:04;10.95;;;4.18;;
9522;SDS011;63165;43.016;25.784;2023-09-08T07:40:31;28.52;;;5.30;;
9522;SDS011;63165;43.016;25.784;2023-09-08T07:43:00;19.70;;;4.18;;
9522;SDS011;63165;43.016;25.784;2023-09-08T07:45:27;25.33;;;4.85;;
9522;SDS011;63165;43.016;25.784;2023-09-08T07:47:55;17.63;;;4.28;;
9522;SDS011;63165;43.016;25.784;2023-09-08T07:50:22;14.95;;;4.13;;
9522;SDS011;63165;43.016;25.784;2023-09-08T07:52:51;13.18;;;3.83;;
9522;SDS011;63165;43.016;25.784;2023-09-08T07:55:20;9.60;;;3.85;;
9522;SDS011;63165;43.016;25.784;2023-09-08T07:57:49;8.27;;;3.55;;
9522;SDS011;63165;43.016;25.784;2023-09-08T08:00:18;15.18;;;3.67;;
9522;SDS011;63165;43.016;25.784;2023-09-08T08:02:47;9.90;;;3.65;;
9522;SDS011;63165;43.016;25.784;2023-09-08T08:05:15;16.20;;;3.85;;
9522;SDS011;63165;43.016;25.784;2023-09-08T08:07:42;10.07;;;3.60;;
9522;SDS011;63165;43.016;25.784;2023-09-08T08:10:10;9.30;;;3.35;;
9522;SDS011;63165;43.016;25.784;2023-09-08T08:12:38;10.40;;;3.65;;
9522;SDS011;63165;43.016;25.784;2023-09-08T08:15:06;9.70;;;3.88;;
9522;SDS011;63165;43.016;25.784;2023-09-08T08:17:36;11.77;;;3.55;;
9522;SDS011;63165;43.016;25.784;2023-09-08T08:20:05;13.60;;;3.88;;
9522;SDS011;63165;43.016;25.784;2023-09-08T08:22:35;10.80;;;3.35;;
9522;SDS011;63165;43.016;25.784;2023-09-08T08:25:02;9.23;;;3.58;;
9522;SDS011;63165;43.016;25.784;2023-09-08T08:27:30;11.57;;;3.80;;
9522;SDS011;63165;43.016;25.784;2023-09-08T08:29:57;14.95;;;3.53;;
9522;SDS011;63165;43.016;25.784;2023-09-08T08:32:26;10.38;;;3.55;;
9522;SDS011;63165;43.016;25.784;2023-09-08T08:34:54;11.13;;;3.42;;
9522;SDS011;63165;43.016;25.784;2023-09-08T08:37:22;9.68;;;3.53;;
9522;SDS011;63165;43.016;25.784;2023-09-08T08:39:49;8.90;;;3.53;;
9522;SDS011;63165;43.016;25.784;2023-09-08T08:42:16;10.80;;;3.60;;
9522;SDS011;63165;43.016;25.784;2023-09-08T08:44:47;10.02;;;3.50;;
9522;SDS011;63165;43.016;25.784;2023-09-08T08:47:15;10.10;;;3.47;;
9522;SDS011;63165;43.016;25.784;2023-09-08T08:49:43;9.38;;;3.38;;
9522;SDS011;63165;43.016;25.784;2023-09-08T08:52:13;10.02;;;3.40;;
9522;SDS011;63165;43.016;25.784;2023-09-08T08:54:42;10.52;;;3.60;;
9522;SDS011;63165;43.016;25.784;2023-09-08T08:57:11;13.23;;;3.90;;
9522;SDS011;63165;43.016;25.784;2023-09-08T08:59:39;10.40;;;3.58;;
9522;SDS011;63165;43.016;25.784;2023-09-08T09:02:07;8.23;;;3.50;;
9522;SDS011;63165;43.016;25.784;2023-09-08T09:04:37;9.13;;;3.47;;
9522;SDS011;63165;43.016;25.784;2023-09-08T09:07:05;9.55;;;3.42;;
9522;SDS011;63165;43.016;25.784;2023-09-08T09:09:35;8.63;;;3.53;;
9522;SDS011;63165;43.016;25.784;2023-09-08T09:12:02;11.55;;;3.60;;
9522;SDS011;63165;43.016;25.784;2023-09-08T09:14:31;11.60;;;3.83;;
9522;SDS011;63165;43.016;25.784;2023-09-08T09:17:00;10.38;;;3.67;;
9522;SDS011;63165;43.016;25.784;2023-09-08T09:19:29;11.68;;;3.67;;
9522;SDS011;63165;43.016;25.784;2023-09-08T09:21:58;10.23;;;3.90;;
9522;SDS011;63165;43.016;25.784;2023-09-08T09:24:29;12.15;;;3.97;;
9522;SDS011;63165;43.016;25.784;2023-09-08T09:27:00;13.27;;;4.15;;
9522;SDS011;63165;43.016;25.784;2023-09-08T09:29:29;8.43;;;3.75;;
9522;SDS011;63165;43.016;25.784;2023-09-08T09:31:57;17.15;;;4.47;;
9522;SDS011;63165;43.016;25.784;2023-09-08T09:34:33;10.00;;;4.35;;
9522;SDS011;63165;43.016;25.784;2023-09-08T09:37:01;10.93;;;4.00;;
9522;SDS011;63165;43.016;25.784;2023-09-08T09:39:31;9.27;;;4.20;;
9522;SDS011;63165;43.016;25.784;2023-09-08T09:41:59;10.18;;;4.20;;
9522;SDS011;63165;43.016;25.784;2023-09-08T09:44:29;10.50;;;4.22;;
9522;SDS011;63165;43.016;25.784;2023-09-08T09:46:56;12.65;;;4.28;;
9522;SDS011;63165;43.016;25.784;2023-09-08T09:49:24;12.25;;;4.15;;
9522;SDS011;63165;43.016;25.784;2023-09-08T09:51:57;16.08;;;4.18;;
9522;SDS011;63165;43.016;25.784;2023-09-08T09:54:25;12.45;;;4.50;;
9522;SDS011;63165;43.016;25.784;2023-09-08T09:56:52;9.05;;;4.20;;
9522;SDS011;63165;43.016;25.784;2023-09-08T09:59:21;12.48;;;4.05;;
9522;SDS011;63165;43.016;25.784;2023-09-08T10:01:49;11.63;;;4.30;;
9522;SDS011;63165;43.016;25.784;2023-09-08T10:04:18;15.05;;;4.32;;
9522;SDS011;63165;43.016;25.784;2023-09-08T10:06:46;11.43;;;3.80;;
9522;SDS011;63165;43.016;25.784;2023-09-08T10:09:14;12.68;;;4.03;;
9522;SDS011;63165;43.016;25.784;2023-09-08T10:11:45;11.05;;;3.70;;
9522;SDS011;63165;43.016;25.784;2023-09-08T10:14:15;15.07;;;4.03;;
9522;SDS011;63165;43.016;25.784;2023-09-08T10:16:44;18.70;;;4.60;;
9522;SDS011;63165;43.016;25.784;2023-09-08T10:19:14;10.95;;;4.03;;
9522;SDS011;63165;43.016;25.784;2023-09-08T10:21:44;10.00;;;4.07;;
9522;SDS011;63165;43.016;25.784;2023-09-08T10:24:14;15.38;;;3.90;;
9522;SDS011;63165;43.016;25.784;2023-09-08T10:26:44;10.50;;;3.42;;
9522;SDS011;63165;43.016;25.784;2023-09-08T10:29:13;11.35;;;3.97;;
9522;SDS011;63165;43.016;25.784;2023-09-08T10:31:40;9.65;;;3.97;;
9522;SDS011;63165;43.016;25.784;2023-09-08T10:34:10;9.80;;;3.75;;
9522;SDS011;63165;43.016;25.784;2023-09-08T10:36:38;13.90;;;4.18;;
9522;SDS011;63165;43.016;25.784;2023-09-08T10:44:57;7.93;;;3.60;;
9522;SDS011;63165;43.016;25.784;2023-09-08T10:47:32;9.60;;;3.67;;
9522;SDS011;63165;43.016;25.784;2023-09-08T10:50:08;12.48;;;3.80;;
9522;SDS011;63165;43.016;25.784;2023-09-08T10:52:42;8.13;;;3.83;;
9522;SDS011;63165;43.016;25.784;2023-09-08T10:55:10;11.18;;;4.03;;
9522;SDS011;63165;43.016;25.784;2023-09-08T10:57:38;8.32;;;3.65;;
9522;SDS011;63165;43.016;25.784;2023-09-08T11:00:12;8.35;;;3.75;;
9522;SDS011;63165;43.016;25.784;2023-09-08T11:02:48;12.85;;;3.47;;
9522;SDS011;63165;43.016;25.784;2023-09-08T11:05:17;12.52;;;4.10;;
9522;SDS011;63165;43.016;25.784;2023-09-08T11:07:47;11.57;;;4.45;;
9522;SDS011;63165;43.016;25.784;2023-09-08T11:10:17;12.57;;;3.72;;
9522;SDS011;63165;43.016;25.784;2023-09-08T11:12:44;10.00;;;3.72;;
9522;SDS011;63165;43.016;25.784;2023-09-08T11:15:14;13.30;;;3.90;;
9522;SDS011;63165;43.016;25.784;2023-09-08T11:17:41;10.43;;;3.70;;
9522;SDS011;63165;43.016;25.784;2023-09-08T11:20:08;11.68;;;3.85;;
9522;SDS011;63165;43.016;25.784;2023-09-08T11:22:39;12.35;;;3.88;;
9522;SDS011;63165;43.016;25.784;2023-09-08T11:25:06;12.95;;;3.80;;
9522;SDS011;63165;43.016;25.784;2023-09-08T11:27:36;9.32;;;3.88;;
9522;SDS011;63165;43.016;25.784;2023-09-08T11:30:05;13.20;;;3.88;;
9522;SDS011;63165;43.016;25.784;2023-09-08T11:32:34;11.05;;;3.95;;
9522;SDS011;63165;43.016;25.784;2023-09-08T11:35:03;9.10;;;3.75;;
9522;SDS011;63165;43.016;25.784;2023-09-08T11:37:34;12.70;;;4.18;;
9522;SDS011;63165;43.016;25.784;2023-09-08T11:40:06;22.15;;;4.55;;
9522;SDS011;63165;43.016;25.784;2023-09-08T11:42:37;13.10;;;4.18;;
9522;SDS011;63165;43.016;25.784;2023-09-08T11:45:10;10.13;;;3.95;;
9522;SDS011;63165;43.016;25.784;2023-09-08T11:47:42;8.88;;;4.10;;
9522;SDS011;63165;43.016;25.784;2023-09-08T11:50:10;12.38;;;3.92;;
9522;SDS011;63165;43.016;25.784;2023-09-08T11:52:41;11.07;;;3.92;;
9522;SDS011;63165;43.016;25.784;2023-09-08T11:55:12;13.88;;;4.00;;
9522;SDS011;63165;43.016;25.784;2023-09-08T11:57:40;10.05;;;3.53;;
9522;SDS011;63165;43.016;25.784;2023-09-08T12:00:08;10.98;;;3.90;;
9522;SDS011;63165;43.016;25.784;2023-09-08T12:02:41;12.48;;;3.67;;
9522;SDS011;63165;43.016;25.784;2023-09-08T12:05:11;12.75;;;4.40;;
9522;SDS011;63165;43.016;25.784;2023-09-08T12:07:40;14.13;;;3.70;;
9522;SDS011;63165;43.016;25.784;2023-09-08T12:10:08;10.73;;;3.97;;
9522;SDS011;63165;43.016;25.784;2023-09-08T12:12:44;14.02;;;3.78;;
9522;SDS011;63165;43.016;25.784;2023-09-08T12:15:12;9.60;;;3.88;;
9522;SDS011;63165;43.016;25.784;2023-09-08T12:17:57;10.93;;;3.88;;
9522;SDS011;63165;43.016;25.784;2023-09-08T12:20:25;11.48;;;3.85;;
9522;SDS011;63165;43.016;25.784;2023-09-08T12:22:53;9.20;;;3.85;;
9522;SDS011;63165;43.016;25.784;2023-09-08T12:25:20;13.27;;;3.85;;
9522;SDS011;63165;43.016;25.784;2023-09-08T12:27:50;12.77;;;3.80;;
9522;SDS011;63165;43.016;25.784;2023-09-08T12:30:18;15.20;;;3.58;;
9522;SDS011;63165;43.016;25.784;2023-09-08T12:32:46;9.40;;;3.28;;
9522;SDS011;63165;43.016;25.784;2023-09-08T12:35:19;11.75;;;3.88;;
9522;SDS011;63165;43.016;25.784;2023-09-08T12:40:35;9.80;;;3.42;;
9522;SDS011;63165;43.016;25.784;2023-09-08T12:43:05;11.25;;;3.83;;
9522;SDS011;63165;43.016;25.784;2023-09-08T12:45:32;13.18;;;3.47;;
9522;SDS011;63165;43.016;25.784;2023-09-08T12:48:00;11.63;;;3.50;;
9522;SDS011;63165;43.016;25.784;2023-09-08T12:50:29;11.30;;;3.60;;
9522;SDS011;63165;43.016;25.784;2023-09-08T12:52:56;14.00;;;3.30;;
9522;SDS011;63165;43.016;25.784;2023-09-08T12:55:23;10.40;;;3.60;;
9522;SDS011;63165;43.016;25.784;2023-09-08T12:57:51;9.05;;;3.60;;
9522;SDS011;63165;43.016;25.784;2023-09-08T13:00:22;7.30;;;3.50;;
9522;SDS011;63165;43.016;25.784;2023-09-08T13:02:50;10.20;;;3.95;;
9522;SDS011;63165;43.016;25.784;2023-09-08T13:05:17;10.18;;;3.17;;
9522;SDS011;63165;43.016;25.784;2023-09-08T13:07:44;11.35;;;3.40;;
9522;SDS011;63165;43.016;25.784;2023-09-08T13:10:11;17.50;;;4.03;;
9522;SDS011;63165;43.016;25.784;2023-09-08T13:12:39;10.80;;;3.33;;
9522;SDS011;63165;43.016;25.784;2023-09-08T13:15:07;10.40;;;3.55;;
9522;SDS011;63165;43.016;25.784;2023-09-08T13:17:36;16.25;;;3.60;;
9522;SDS011;63165;43.016;25.784;2023-09-08T13:20:04;16.73;;;3.50;;
9522;SDS011;63165;43.016;25.784;2023-09-08T13:22:32;9.88;;;3.30;;
9522;SDS011;63165;43.016;25.784;2023-09-08T13:24:59;7.47;;;3.10;;
9522;SDS011;63165;43.016;25.784;2023-09-08T13:27:26;13.75;;;3.50;;
9522;SDS011;63165;43.016;25.784;2023-09-08T13:29:53;10.93;;;3.33;;
9522;SDS011;63165;43.016;25.784;2023-09-08T13:32:21;13.23;;;3.47;;
9522;SDS011;63165;43.016;25.784;2023-09-08T13:34:51;10.45;;;3.20;;
9522;SDS011;63165;43.016;25.784;2023-09-08T13:37:18;10.15;;;3.58;;
9522;SDS011;63165;43.016;25.784;2023-09-08T13:39:46;9.32;;;3.08;;
9522;SDS011;63165;43.016;25.784;2023-09-08T13:42:13;7.68;;;3.17;;
9522;SDS011;63165;43.016;25.784;2023-09-08T13:44:41;11.85;;;3.70;;
9522;SDS011;63165;43.016;25.784;2023-09-08T13:47:08;12.52;;;3.70;;
9522;SDS011;63165;43.016;25.784;2023-09-08T13:49:35;14.30;;;3.47;;
9522;SDS011;63165;43.016;25.784;2023-09-08T13:52:04;12.45;;;3.60;;
9522;SDS011;63165;43.016;25.784;2023-09-08T13:54:32;12.98;;;3.45;;
9522;SDS011;63165;43.016;25.784;2023-09-08T13:57:00;16.88;;;3.90;;
9522;SDS011;63165;43.016;25.784;2023-09-08T13:59:29;10.43;;;3.85;;
9522;SDS011;63165;43.016;25.784;2023-09-08T14:01:57;14.07;;;3.85;;
9522;SDS011;63165;43.016;25.784;2023-09-08T14:04:24;11.30;;;3.45;;
9522;SDS011;63165;43.016;25.784;2023-09-08T14:06:51;34.05;;;4.43;;
9522;SDS011;63165;43.016;25.784;2023-09-08T14:09:20;15.57;;;3.85;;
9522;SDS011;63165;43.016;25.784;2023-09-08T14:11:47;11.55;;;4.03;;
9522;SDS011;63165;43.016;25.784;2023-09-08T14:14:14;20.02;;;3.65;;
9522;SDS011;63165;43.016;25.784;2023-09-08T14:16:41;13.07;;;3.95;;
9522;SDS011;63165;43.016;25.784;2023-09-08T14:19:09;11.85;;;3.92;;
9522;SDS011;63165;43.016;25.784;2023-09-08T14:21:36;11.95;;;3.65;;
9522;SDS011;63165;43.016;25.784;2023-09-08T14:24:05;12.70;;;3.40;;
9522;SDS011;63165;43.016;25.784;2023-09-08T14:26:34;12.48;;;3.53;;
9522;SDS011;63165;43.016;25.784;2023-09-08T14:29:01;10.50;;;3.47;;
9522;SDS011;63165;43.016;25.784;2023-09-08T14:31:28;16.45;;;3.75;;
9522;SDS011;63165;43.016;25.784;2023-09-08T14:33:56;19.10;;;4.47;;
9522;SDS011;63165;43.016;25.784;2023-09-08T14:36:23;12.20;;;4.00;;
9522;SDS011;63165;43.016;25.784;2023-09-08T14:38:50;10.05;;;3.50;;
9522;SDS011;63165;43.016;25.784;2023-09-08T14:41:17;8.70;;;3.28;;
9522;SDS011;63165;43.016;25.784;2023-09-08T14:43:46;13.38;;;3.90;;
9522;SDS011;63165;43.016;25.784;2023-09-08T14:46:13;11.20;;;3.70;;
9522;SDS011;63165;43.016;25.784;2023-09-08T14:48:40;15.25;;;3.78;;
9522;SDS011;63165;43.016;25.784;2023-09-08T14:51:07;31.88;;;6.05;;